sensor_id;sensor_type;location;lat;lon;timestamp;P1;durP1;ratioP1;P2;durP2;ratioP2
64560;SDS011;50960;46.838;16.838;2023-03-23T00:01:07;3.50;;;3.20;;
64560;SDS011;50960;46.838;16.838;2023-03-23T00:03:45;3.15;;;2.90;;
64560;SDS011;50960;46.838;16.838;2023-03-23T00:06:13;3.33;;;3.13;;
64560;SDS011;50960;46.838;16.838;2023-03-23T00:08:43;3.47;;;3.17;;
64560;SDS011;50960;46.838;16.838;2023-03-23T00:11:12;3.58;;;3.10;;
64560;SDS011;50960;46.838;16.838;2023-03-23T00:13:44;3.85;;;3.55;;
64560;SDS011;50960;46.838;16.838;2023-03-23T00:16:13;3.22;;;2.92;;
64560;SDS011;50960;46.838;16.838;2023-03-23T00:18:49;3.60;;;3.30;;
64560;SDS011;50960;46.838;16.838;2023-03-23T00:21:20;3.70;;;3.40;;
64560;SDS011;50960;46.838;16.838;2023-03-23T00:23:59;3.20;;;2.97;;
64560;SDS011;50960;46.838;16.838;2023-03-23T00:26:26;3.35;;;3.05;;
64560;SDS011;50960;46.838;16.838;2023-03-23T00:28:55;4.25;;;3.85;;
64560;SDS011;50960;46.838;16.838;2023-03-23T00:31:21;3.85;;;3.35;;
64560;SDS011;50960;46.838;16.838;2023-03-23T00:33:48;3.72;;;3.40;;
64560;SDS011;50960;46.838;16.838;2023-03-23T00:36:15;3.85;;;3.55;;
64560;SDS011;50960;46.838;16.838;2023-03-23T00:38:43;4.22;;;3.40;;
64560;SDS011;50960;46.838;16.838;2023-03-23T00:41:09;3.75;;;3.45;;
64560;SDS011;50960;46.838;16.838;2023-03-23T00:43:37;3.60;;;3.30;;
64560;SDS011;50960;46.838;16.838;2023-03-23T00:46:04;3.80;;;3.40;;
64560;SDS011;50960;46.838;16.838;2023-03-23T00:48:38;3.40;;;3.10;;
64560;SDS011;50960;46.838;16.838;2023-03-23T00:51:10;3.88;;;3.50;;
64560;SDS011;50960;46.838;16.838;2023-03-23T00:53:38;3.58;;;3.30;;
64560;SDS011;50960;46.838;16.838;2023-03-23T00:56:06;3.60;;;3.30;;
64560;SDS011;50960;46.838;16.838;2023-03-23T00:58:34;4.72;;;3.53;;
64560;SDS011;50960;46.838;16.838;2023-03-23T01:01:00;3.60;;;3.38;;
64560;SDS011;50960;46.838;16.838;2023-03-23T01:03:27;3.67;;;3.38;;
64560;SDS011;50960;46.838;16.838;2023-03-23T01:05:55;3.78;;;3.47;;
64560;SDS011;50960;46.838;16.838;2023-03-23T01:08:23;3.45;;;3.25;;
64560;SDS011;50960;46.838;16.838;2023-03-23T01:10:50;3.80;;;3.50;;
64560;SDS011;50960;46.838;16.838;2023-03-23T01:13:16;3.90;;;3.60;;
64560;SDS011;50960;46.838;16.838;2023-03-23T01:15:43;5.70;;;5.20;;
64560;SDS011;50960;46.838;16.838;2023-03-23T01:18:10;4.97;;;4.55;;
64560;SDS011;50960;46.838;16.838;2023-03-23T01:20:36;3.95;;;3.55;;
64560;SDS011;50960;46.838;16.838;2023-03-23T01:23:03;3.97;;;3.67;;
64560;SDS011;50960;46.838;16.838;2023-03-23T01:25:30;3.85;;;3.55;;
64560;SDS011;50960;46.838;16.838;2023-03-23T01:28:01;3.58;;;3.38;;
64560;SDS011;50960;46.838;16.838;2023-03-23T01:30:27;3.90;;;3.58;;
64560;SDS011;50960;46.838;16.838;2023-03-23T01:32:54;4.03;;;3.53;;
64560;SDS011;50960;46.838;16.838;2023-03-23T01:35:21;3.70;;;3.40;;
64560;SDS011;50960;46.838;16.838;2023-03-23T01:37:47;4.20;;;3.90;;
64560;SDS011;50960;46.838;16.838;2023-03-23T01:40:14;3.80;;;3.50;;
64560;SDS011;50960;46.838;16.838;2023-03-23T01:42:41;3.72;;;3.42;;
64560;SDS011;50960;46.838;16.838;2023-03-23T01:45:21;4.13;;;3.60;;
64560;SDS011;50960;46.838;16.838;2023-03-23T01:48:13;3.70;;;3.40;;
64560;SDS011;50960;46.838;16.838;2023-03-23T01:50:55;4.00;;;3.70;;
64560;SDS011;50960;46.838;16.838;2023-03-23T01:53:28;6.93;;;3.60;;
64560;SDS011;50960;46.838;16.838;2023-03-23T01:55:58;3.90;;;3.50;;
64560;SDS011;50960;46.838;16.838;2023-03-23T01:58:27;3.70;;;3.40;;
64560;SDS011;50960;46.838;16.838;2023-03-23T02:00:57;4.15;;;3.78;;
64560;SDS011;50960;46.838;16.838;2023-03-23T02:03:27;3.72;;;3.53;;
64560;SDS011;50960;46.838;16.838;2023-03-23T02:05:56;4.22;;;3.90;;
64560;SDS011;50960;46.838;16.838;2023-03-23T02:08:27;4.05;;;3.75;;
64560;SDS011;50960;46.838;16.838;2023-03-23T02:10:54;3.90;;;3.60;;
64560;SDS011;50960;46.838;16.838;2023-03-23T02:13:21;4.13;;;3.72;;
64560;SDS011;50960;46.838;16.838;2023-03-23T02:15:56;4.55;;;3.42;;
64560;SDS011;50960;46.838;16.838;2023-03-23T02:18:44;4.07;;;3.63;;
64560;SDS011;50960;46.838;16.838;2023-03-23T02:27:05;4.25;;;3.40;;
64560;SDS011;50960;46.838;16.838;2023-03-23T02:29:58;5.63;;;3.85;;
64560;SDS011;50960;46.838;16.838;2023-03-23T02:35:20;3.72;;;3.45;;
64560;SDS011;50960;46.838;16.838;2023-03-23T02:38:02;4.07;;;3.67;;
64560;SDS011;50960;46.838;16.838;2023-03-23T02:40:36;4.03;;;3.63;;
64560;SDS011;50960;46.838;16.838;2023-03-23T02:43:06;3.78;;;3.42;;
64560;SDS011;50960;46.838;16.838;2023-03-23T02:45:38;3.88;;;3.60;;
64560;SDS011;50960;46.838;16.838;2023-03-23T02:48:05;4.00;;;3.70;;
64560;SDS011;50960;46.838;16.838;2023-03-23T02:50:33;4.00;;;3.70;;
64560;SDS011;50960;46.838;16.838;2023-03-23T02:53:02;3.95;;;3.65;;
64560;SDS011;50960;46.838;16.838;2023-03-23T02:55:32;4.00;;;3.70;;
64560;SDS011;50960;46.838;16.838;2023-03-23T02:58:00;4.22;;;3.83;;
64560;SDS011;50960;46.838;16.838;2023-03-23T03:00:27;4.35;;;3.88;;
64560;SDS011;50960;46.838;16.838;2023-03-23T03:02:54;4.43;;;4.03;;
64560;SDS011;50960;46.838;16.838;2023-03-23T03:05:28;3.88;;;3.58;;
64560;SDS011;50960;46.838;16.838;2023-03-23T03:13:31;4.75;;;3.90;;
64560;SDS011;50960;46.838;16.838;2023-03-23T03:21:28;3.90;;;3.60;;
64560;SDS011;50960;46.838;16.838;2023-03-23T03:23:58;4.10;;;3.70;;
64560;SDS011;50960;46.838;16.838;2023-03-23T03:26:26;4.00;;;3.70;;
64560;SDS011;50960;46.838;16.838;2023-03-23T03:28:55;7.78;;;4.53;;
64560;SDS011;50960;46.838;16.838;2023-03-23T03:31:28;5.70;;;4.28;;
64560;SDS011;50960;46.838;16.838;2023-03-23T03:33:57;6.85;;;4.28;;
64560;SDS011;50960;46.838;16.838;2023-03-23T03:36:31;5.13;;;4.38;;
64560;SDS011;50960;46.838;16.838;2023-03-23T03:39:04;5.90;;;5.30;;
64560;SDS011;50960;46.838;16.838;2023-03-23T03:41:33;5.30;;;4.85;;
64560;SDS011;50960;46.838;16.838;2023-03-23T03:44:01;4.63;;;4.22;;
64560;SDS011;50960;46.838;16.838;2023-03-23T03:46:28;4.93;;;4.43;;
64560;SDS011;50960;46.838;16.838;2023-03-23T03:48:56;4.30;;;3.90;;
64560;SDS011;50960;46.838;16.838;2023-03-23T03:51:24;5.15;;;4.65;;
64560;SDS011;50960;46.838;16.838;2023-03-23T03:53:51;4.93;;;4.43;;
64560;SDS011;50960;46.838;16.838;2023-03-23T03:56:19;6.57;;;4.28;;
64560;SDS011;50960;46.838;16.838;2023-03-23T03:58:48;5.00;;;4.57;;
64560;SDS011;50960;46.838;16.838;2023-03-23T04:01:16;9.00;;;4.50;;
64560;SDS011;50960;46.838;16.838;2023-03-23T04:03:44;4.68;;;4.28;;
64560;SDS011;50960;46.838;16.838;2023-03-23T04:06:11;6.97;;;4.50;;
64560;SDS011;50960;46.838;16.838;2023-03-23T04:08:38;7.78;;;4.72;;
64560;SDS011;50960;46.838;16.838;2023-03-23T04:11:07;4.93;;;4.50;;
64560;SDS011;50960;46.838;16.838;2023-03-23T04:13:34;5.38;;;4.18;;
64560;SDS011;50960;46.838;16.838;2023-03-23T04:16:00;6.63;;;4.43;;
64560;SDS011;50960;46.838;16.838;2023-03-23T04:18:27;6.30;;;4.78;;
64560;SDS011;50960;46.838;16.838;2023-03-23T04:20:54;4.80;;;4.38;;
64560;SDS011;50960;46.838;16.838;2023-03-23T04:23:25;4.75;;;4.32;;
64560;SDS011;50960;46.838;16.838;2023-03-23T04:25:55;4.70;;;4.25;;
64560;SDS011;50960;46.838;16.838;2023-03-23T04:28:23;5.53;;;4.47;;
64560;SDS011;50960;46.838;16.838;2023-03-23T04:30:51;5.13;;;4.63;;
64560;SDS011;50960;46.838;16.838;2023-03-23T04:33:24;6.55;;;4.57;;
64560;SDS011;50960;46.838;16.838;2023-03-23T04:35:53;4.80;;;4.40;;
64560;SDS011;50960;46.838;16.838;2023-03-23T04:38:23;7.30;;;4.63;;
64560;SDS011;50960;46.838;16.838;2023-03-23T04:40:51;5.20;;;4.68;;
64560;SDS011;50960;46.838;16.838;2023-03-23T04:43:18;5.40;;;4.32;;
64560;SDS011;50960;46.838;16.838;2023-03-23T04:45:57;5.60;;;4.88;;
64560;SDS011;50960;46.838;16.838;2023-03-23T04:48:26;6.03;;;4.53;;
64560;SDS011;50960;46.838;16.838;2023-03-23T04:50:53;6.38;;;4.97;;
64560;SDS011;50960;46.838;16.838;2023-03-23T04:53:20;5.45;;;4.95;;
64560;SDS011;50960;46.838;16.838;2023-03-23T04:55:47;16.52;;;13.95;;
64560;SDS011;50960;46.838;16.838;2023-03-23T04:58:14;6.50;;;5.85;;
64560;SDS011;50960;46.838;16.838;2023-03-23T05:00:42;7.68;;;5.30;;
64560;SDS011;50960;46.838;16.838;2023-03-23T05:03:09;8.57;;;6.55;;
64560;SDS011;50960;46.838;16.838;2023-03-23T05:05:37;6.88;;;6.20;;
64560;SDS011;50960;46.838;16.838;2023-03-23T05:08:05;7.13;;;5.22;;
64560;SDS011;50960;46.838;16.838;2023-03-23T05:10:32;6.05;;;5.45;;
64560;SDS011;50960;46.838;16.838;2023-03-23T05:12:58;6.15;;;5.57;;
64560;SDS011;50960;46.838;16.838;2023-03-23T05:15:24;8.25;;;5.85;;
64560;SDS011;50960;46.838;16.838;2023-03-23T05:17:51;10.02;;;5.72;;
64560;SDS011;50960;46.838;16.838;2023-03-23T05:20:18;7.13;;;5.47;;
64560;SDS011;50960;46.838;16.838;2023-03-23T05:22:46;8.27;;;5.90;;
64560;SDS011;50960;46.838;16.838;2023-03-23T05:25:16;8.95;;;5.72;;
64560;SDS011;50960;46.838;16.838;2023-03-23T05:27:46;5.95;;;5.45;;
64560;SDS011;50960;46.838;16.838;2023-03-23T05:30:18;7.70;;;6.03;;
64560;SDS011;50960;46.838;16.838;2023-03-23T05:32:47;8.18;;;6.15;;
64560;SDS011;50960;46.838;16.838;2023-03-23T05:35:17;6.38;;;5.78;;
64560;SDS011;50960;46.838;16.838;2023-03-23T05:37:44;8.80;;;5.82;;
64560;SDS011;50960;46.838;16.838;2023-03-23T05:40:11;8.63;;;5.95;;
64560;SDS011;50960;46.838;16.838;2023-03-23T05:42:38;6.47;;;5.72;;
64560;SDS011;50960;46.838;16.838;2023-03-23T05:45:07;7.13;;;6.28;;
64560;SDS011;50960;46.838;16.838;2023-03-23T05:47:36;6.50;;;5.57;;
64560;SDS011;50960;46.838;16.838;2023-03-23T05:50:07;8.10;;;7.03;;
64560;SDS011;50960;46.838;16.838;2023-03-23T05:52:38;6.50;;;5.88;;
64560;SDS011;50960;46.838;16.838;2023-03-23T05:55:05;7.43;;;6.32;;
64560;SDS011;50960;46.838;16.838;2023-03-23T05:57:33;8.35;;;6.45;;
64560;SDS011;50960;46.838;16.838;2023-03-23T05:59:59;11.40;;;6.60;;
64560;SDS011;50960;46.838;16.838;2023-03-23T06:02:30;8.32;;;6.35;;
64560;SDS011;50960;46.838;16.838;2023-03-23T06:04:57;8.65;;;6.40;;
64560;SDS011;50960;46.838;16.838;2023-03-23T06:07:24;10.90;;;7.85;;
64560;SDS011;50960;46.838;16.838;2023-03-23T06:09:54;8.95;;;6.50;;
64560;SDS011;50960;46.838;16.838;2023-03-23T06:12:20;8.38;;;6.25;;
64560;SDS011;50960;46.838;16.838;2023-03-23T06:14:47;10.82;;;6.68;;
64560;SDS011;50960;46.838;16.838;2023-03-23T06:17:15;7.90;;;6.22;;
64560;SDS011;50960;46.838;16.838;2023-03-23T06:19:43;9.75;;;6.13;;
64560;SDS011;50960;46.838;16.838;2023-03-23T06:22:16;8.70;;;5.90;;
64560;SDS011;50960;46.838;16.838;2023-03-23T06:24:43;6.20;;;5.60;;
64560;SDS011;50960;46.838;16.838;2023-03-23T06:27:10;5.95;;;5.35;;
64560;SDS011;50960;46.838;16.838;2023-03-23T06:29:36;5.95;;;5.45;;
64560;SDS011;50960;46.838;16.838;2023-03-23T06:32:03;7.50;;;5.20;;
64560;SDS011;50960;46.838;16.838;2023-03-23T06:34:30;6.22;;;5.10;;
64560;SDS011;50960;46.838;16.838;2023-03-23T06:36:58;5.30;;;4.80;;
64560;SDS011;50960;46.838;16.838;2023-03-23T06:39:24;5.50;;;5.00;;
64560;SDS011;50960;46.838;16.838;2023-03-23T06:41:58;6.07;;;5.47;;
64560;SDS011;50960;46.838;16.838;2023-03-23T06:44:25;6.03;;;5.40;;
64560;SDS011;50960;46.838;16.838;2023-03-23T06:46:51;5.57;;;5.07;;
64560;SDS011;50960;46.838;16.838;2023-03-23T06:49:17;5.93;;;5.40;;
64560;SDS011;50960;46.838;16.838;2023-03-23T06:51:44;6.05;;;5.35;;
64560;SDS011;50960;46.838;16.838;2023-03-23T06:54:11;6.53;;;5.60;;
64560;SDS011;50960;46.838;16.838;2023-03-23T06:56:37;6.25;;;5.15;;
64560;SDS011;50960;46.838;16.838;2023-03-23T06:59:03;5.95;;;5.45;;
64560;SDS011;50960;46.838;16.838;2023-03-23T07:01:30;8.25;;;5.38;;
64560;SDS011;50960;46.838;16.838;2023-03-23T07:03:56;5.60;;;5.10;;
64560;SDS011;50960;46.838;16.838;2023-03-23T07:06:23;5.72;;;5.13;;
64560;SDS011;50960;46.838;16.838;2023-03-23T07:08:51;5.70;;;4.95;;
64560;SDS011;50960;46.838;16.838;2023-03-23T07:11:18;5.57;;;5.13;;
64560;SDS011;50960;46.838;16.838;2023-03-23T07:13:44;6.03;;;5.43;;
64560;SDS011;50960;46.838;16.838;2023-03-23T07:16:12;6.32;;;5.82;;
64560;SDS011;50960;46.838;16.838;2023-03-23T07:18:38;6.15;;;5.55;;
64560;SDS011;50960;46.838;16.838;2023-03-23T07:21:05;6.30;;;5.68;;
64560;SDS011;50960;46.838;16.838;2023-03-23T07:23:32;8.27;;;6.15;;
64560;SDS011;50960;46.838;16.838;2023-03-23T07:25:58;6.65;;;6.03;;
64560;SDS011;50960;46.838;16.838;2023-03-23T07:28:24;6.25;;;5.13;;
64560;SDS011;50960;46.838;16.838;2023-03-23T07:30:51;8.35;;;5.15;;
64560;SDS011;50960;46.838;16.838;2023-03-23T07:33:18;7.28;;;5.53;;
64560;SDS011;50960;46.838;16.838;2023-03-23T07:35:44;5.90;;;5.25;;
64560;SDS011;50960;46.838;16.838;2023-03-23T07:38:12;5.35;;;4.95;;
64560;SDS011;50960;46.838;16.838;2023-03-23T07:40:40;5.57;;;5.15;;
64560;SDS011;50960;46.838;16.838;2023-03-23T07:43:07;6.32;;;5.30;;
64560;SDS011;50960;46.838;16.838;2023-03-23T07:45:34;5.95;;;5.10;;
64560;SDS011;50960;46.838;16.838;2023-03-23T07:48:00;5.93;;;5.05;;
64560;SDS011;50960;46.838;16.838;2023-03-23T07:50:27;6.00;;;5.43;;
64560;SDS011;50960;46.838;16.838;2023-03-23T07:52:55;7.93;;;6.60;;
64560;SDS011;50960;46.838;16.838;2023-03-23T07:55:23;6.50;;;5.70;;
64560;SDS011;50960;46.838;16.838;2023-03-23T07:57:51;7.07;;;6.05;;
64560;SDS011;50960;46.838;16.838;2023-03-23T08:00:19;6.38;;;5.78;;
64560;SDS011;50960;46.838;16.838;2023-03-23T08:02:50;8.15;;;6.10;;
64560;SDS011;50960;46.838;16.838;2023-03-23T08:05:18;8.00;;;6.15;;
64560;SDS011;50960;46.838;16.838;2023-03-23T08:07:45;7.38;;;6.60;;
64560;SDS011;50960;46.838;16.838;2023-03-23T08:10:13;7.60;;;6.82;;
64560;SDS011;50960;46.838;16.838;2023-03-23T08:12:41;8.00;;;5.80;;
64560;SDS011;50960;46.838;16.838;2023-03-23T08:15:09;8.57;;;6.30;;
64560;SDS011;50960;46.838;16.838;2023-03-23T08:17:41;7.63;;;5.65;;
64560;SDS011;50960;46.838;16.838;2023-03-23T08:20:08;7.63;;;5.63;;
64560;SDS011;50960;46.838;16.838;2023-03-23T08:22:42;7.18;;;5.70;;
64560;SDS011;50960;46.838;16.838;2023-03-23T08:25:12;6.20;;;5.30;;
64560;SDS011;50960;46.838;16.838;2023-03-23T08:27:39;6.78;;;6.07;;
64560;SDS011;50960;46.838;16.838;2023-03-23T08:30:09;7.18;;;6.47;;
64560;SDS011;50960;46.838;16.838;2023-03-23T08:32:43;7.90;;;6.30;;
64560;SDS011;50960;46.838;16.838;2023-03-23T08:35:10;9.35;;;6.82;;
64560;SDS011;50960;46.838;16.838;2023-03-23T08:37:37;8.23;;;7.40;;
64560;SDS011;50960;46.838;16.838;2023-03-23T08:40:04;9.20;;;7.35;;
64560;SDS011;50960;46.838;16.838;2023-03-23T08:42:38;8.63;;;7.45;;
64560;SDS011;50960;46.838;16.838;2023-03-23T08:45:07;9.88;;;8.27;;
64560;SDS011;50960;46.838;16.838;2023-03-23T08:47:37;9.57;;;8.57;;
64560;SDS011;50960;46.838;16.838;2023-03-23T08:50:04;9.73;;;7.70;;
64560;SDS011;50960;46.838;16.838;2023-03-23T08:52:32;10.10;;;8.57;;
64560;SDS011;50960;46.838;16.838;2023-03-23T08:54:58;10.35;;;7.60;;
64560;SDS011;50960;46.838;16.838;2023-03-23T08:57:25;9.25;;;7.60;;
64560;SDS011;50960;46.838;16.838;2023-03-23T08:59:52;10.50;;;7.28;;
64560;SDS011;50960;46.838;16.838;2023-03-23T09:02:25;8.50;;;7.13;;
64560;SDS011;50960;46.838;16.838;2023-03-23T09:04:53;10.55;;;8.77;;
64560;SDS011;50960;46.838;16.838;2023-03-23T09:07:19;9.68;;;8.50;;
64560;SDS011;50960;46.838;16.838;2023-03-23T09:09:46;11.40;;;8.30;;
64560;SDS011;50960;46.838;16.838;2023-03-23T09:12:12;9.88;;;8.13;;
64560;SDS011;50960;46.838;16.838;2023-03-23T09:14:39;9.77;;;8.10;;
64560;SDS011;50960;46.838;16.838;2023-03-23T09:17:06;11.77;;;8.98;;
64560;SDS011;50960;46.838;16.838;2023-03-23T09:19:33;9.77;;;8.75;;
64560;SDS011;50960;46.838;16.838;2023-03-23T09:22:00;9.90;;;8.43;;
64560;SDS011;50960;46.838;16.838;2023-03-23T09:24:27;8.15;;;7.30;;
64560;SDS011;50960;46.838;16.838;2023-03-23T09:26:53;11.10;;;8.80;;
64560;SDS011;50960;46.838;16.838;2023-03-23T09:29:19;9.52;;;8.32;;
64560;SDS011;50960;46.838;16.838;2023-03-23T09:31:48;9.55;;;8.60;;
64560;SDS011;50960;46.838;16.838;2023-03-23T09:34:16;9.60;;;8.57;;
64560;SDS011;50960;46.838;16.838;2023-03-23T09:36:42;10.18;;;9.05;;
64560;SDS011;50960;46.838;16.838;2023-03-23T09:39:10;10.10;;;8.43;;
64560;SDS011;50960;46.838;16.838;2023-03-23T09:41:48;10.80;;;8.60;;
64560;SDS011;50960;46.838;16.838;2023-03-23T09:47:10;12.13;;;8.60;;
64560;SDS011;50960;46.838;16.838;2023-03-23T09:50:14;8.95;;;6.93;;
64560;SDS011;50960;46.838;16.838;2023-03-23T09:52:54;9.47;;;7.70;;
64560;SDS011;50960;46.838;16.838;2023-03-23T09:55:24;11.93;;;8.70;;
64560;SDS011;50960;46.838;16.838;2023-03-23T09:58:11;10.40;;;8.63;;
64560;SDS011;50960;46.838;16.838;2023-03-23T10:03:31;13.93;;;9.10;;
64560;SDS011;50960;46.838;16.838;2023-03-23T10:06:03;10.75;;;9.55;;
64560;SDS011;50960;46.838;16.838;2023-03-23T10:08:30;9.75;;;8.77;;
64560;SDS011;50960;46.838;16.838;2023-03-23T10:11:08;9.70;;;8.00;;
64560;SDS011;50960;46.838;16.838;2023-03-23T10:17:12;12.27;;;9.02;;
64560;SDS011;50960;46.838;16.838;2023-03-23T10:22:18;11.55;;;8.60;;
64560;SDS011;50960;46.838;16.838;2023-03-23T10:25:14;12.10;;;9.55;;
64560;SDS011;50960;46.838;16.838;2023-03-23T10:27:53;12.32;;;10.02;;
64560;SDS011;50960;46.838;16.838;2023-03-23T10:30:37;13.65;;;9.15;;
64560;SDS011;50960;46.838;16.838;2023-03-23T10:33:17;13.57;;;10.23;;
64560;SDS011;50960;46.838;16.838;2023-03-23T10:35:54;11.68;;;9.63;;
64560;SDS011;50960;46.838;16.838;2023-03-23T10:38:30;10.85;;;9.75;;
64560;SDS011;50960;46.838;16.838;2023-03-23T10:43:38;8.88;;;7.85;;
64560;SDS011;50960;46.838;16.838;2023-03-23T10:48:43;9.40;;;8.45;;
64560;SDS011;50960;46.838;16.838;2023-03-23T10:51:11;9.00;;;8.07;;
64560;SDS011;50960;46.838;16.838;2023-03-23T10:53:42;9.27;;;7.20;;
64560;SDS011;50960;46.838;16.838;2023-03-23T10:56:27;8.75;;;7.82;;
64560;SDS011;50960;46.838;16.838;2023-03-23T10:59:10;8.90;;;8.10;;
64560;SDS011;50960;46.838;16.838;2023-03-23T11:01:43;5.47;;;4.75;;
64560;SDS011;50960;46.838;16.838;2023-03-23T11:04:14;8.55;;;7.72;;
64560;SDS011;50960;46.838;16.838;2023-03-23T11:06:46;14.18;;;8.20;;
64560;SDS011;50960;46.838;16.838;2023-03-23T11:09:21;10.07;;;8.50;;
64560;SDS011;50960;46.838;16.838;2023-03-23T11:12:00;9.85;;;8.07;;
64560;SDS011;50960;46.838;16.838;2023-03-23T11:14:29;12.15;;;8.68;;
64560;SDS011;50960;46.838;16.838;2023-03-23T11:17:03;10.32;;;8.07;;
64560;SDS011;50960;46.838;16.838;2023-03-23T11:19:35;9.25;;;8.25;;
64560;SDS011;50960;46.838;16.838;2023-03-23T11:24:41;10.75;;;8.27;;
64560;SDS011;50960;46.838;16.838;2023-03-23T11:27:10;9.65;;;8.40;;
64560;SDS011;50960;46.838;16.838;2023-03-23T11:29:49;9.48;;;7.90;;
64560;SDS011;50960;46.838;16.838;2023-03-23T11:32:19;10.23;;;8.90;;
64560;SDS011;50960;46.838;16.838;2023-03-23T11:34:53;9.80;;;8.50;;
64560;SDS011;50960;46.838;16.838;2023-03-23T11:45:13;9.35;;;8.02;;
64560;SDS011;50960;46.838;16.838;2023-03-23T11:47:58;13.93;;;8.85;;
64560;SDS011;50960;46.838;16.838;2023-03-23T11:54:00;9.10;;;8.10;;
64560;SDS011;50960;46.838;16.838;2023-03-23T11:59:00;11.55;;;9.18;;
64560;SDS011;50960;46.838;16.838;2023-03-23T12:01:41;10.45;;;9.00;;
64560;SDS011;50960;46.838;16.838;2023-03-23T12:15:45;11.63;;;9.57;;
64560;SDS011;50960;46.838;16.838;2023-03-23T12:26:18;10.65;;;7.55;;
64560;SDS011;50960;46.838;16.838;2023-03-23T12:32:16;10.13;;;8.68;;
64560;SDS011;50960;46.838;16.838;2023-03-23T12:37:51;9.52;;;8.60;;
64560;SDS011;50960;46.838;16.838;2023-03-23T12:40:50;12.02;;;9.35;;
64560;SDS011;50960;46.838;16.838;2023-03-23T12:46:20;8.40;;;7.50;;
64560;SDS011;50960;46.838;16.838;2023-03-23T12:48:56;9.55;;;8.63;;
64560;SDS011;50960;46.838;16.838;2023-03-23T12:51:49;8.95;;;8.00;;
64560;SDS011;50960;46.838;16.838;2023-03-23T12:54:42;9.15;;;8.23;;
64560;SDS011;50960;46.838;16.838;2023-03-23T12:57:19;9.70;;;8.65;;
64560;SDS011;50960;46.838;16.838;2023-03-23T13:00:14;11.30;;;8.13;;
64560;SDS011;50960;46.838;16.838;2023-03-23T13:02:50;9.98;;;7.97;;
64560;SDS011;50960;46.838;16.838;2023-03-23T13:08:40;9.20;;;8.30;;
64560;SDS011;50960;46.838;16.838;2023-03-23T13:11:17;11.55;;;8.40;;
64560;SDS011;50960;46.838;16.838;2023-03-23T13:13:53;9.50;;;8.60;;
64560;SDS011;50960;46.838;16.838;2023-03-23T13:24:21;11.77;;;7.88;;
64560;SDS011;50960;46.838;16.838;2023-03-23T13:26:52;10.90;;;8.80;;
64560;SDS011;50960;46.838;16.838;2023-03-23T13:29:23;8.30;;;7.28;;
64560;SDS011;50960;46.838;16.838;2023-03-23T13:32:03;9.05;;;8.15;;
64560;SDS011;50960;46.838;16.838;2023-03-23T13:34:32;8.50;;;7.68;;
64560;SDS011;50960;46.838;16.838;2023-03-23T13:37:05;8.57;;;7.72;;
64560;SDS011;50960;46.838;16.838;2023-03-23T13:39:39;8.77;;;7.88;;
64560;SDS011;50960;46.838;16.838;2023-03-23T13:42:25;8.88;;;7.88;;
64560;SDS011;50960;46.838;16.838;2023-03-23T13:45:06;8.13;;;7.25;;
64560;SDS011;50960;46.838;16.838;2023-03-23T13:47:45;8.82;;;7.07;;
64560;SDS011;50960;46.838;16.838;2023-03-23T13:53:12;8.77;;;6.93;;
64560;SDS011;50960;46.838;16.838;2023-03-23T13:55:41;10.23;;;7.78;;
64560;SDS011;50960;46.838;16.838;2023-03-23T13:58:21;8.68;;;7.75;;
64560;SDS011;50960;46.838;16.838;2023-03-23T14:07:51;8.20;;;7.38;;
64560;SDS011;50960;46.838;16.838;2023-03-23T14:11:00;9.35;;;7.78;;
64560;SDS011;50960;46.838;16.838;2023-03-23T14:13:28;10.45;;;7.88;;
64560;SDS011;50960;46.838;16.838;2023-03-23T14:16:01;7.80;;;7.10;;
64560;SDS011;50960;46.838;16.838;2023-03-23T14:18:40;8.37;;;7.63;;
64560;SDS011;50960;46.838;16.838;2023-03-23T14:21:14;9.02;;;7.25;;
64560;SDS011;50960;46.838;16.838;2023-03-23T14:23:42;8.48;;;7.68;;
64560;SDS011;50960;46.838;16.838;2023-03-23T14:26:12;8.32;;;7.55;;
64560;SDS011;50960;46.838;16.838;2023-03-23T14:28:44;8.05;;;7.32;;
64560;SDS011;50960;46.838;16.838;2023-03-23T14:33:48;8.07;;;7.07;;
64560;SDS011;50960;46.838;16.838;2023-03-23T14:36:29;9.68;;;7.30;;
64560;SDS011;50960;46.838;16.838;2023-03-23T14:38:59;9.00;;;8.20;;
64560;SDS011;50960;46.838;16.838;2023-03-23T14:41:29;8.18;;;7.38;;
64560;SDS011;50960;46.838;16.838;2023-03-23T14:43:57;8.23;;;7.30;;
64560;SDS011;50960;46.838;16.838;2023-03-23T14:46:26;8.50;;;7.25;;
64560;SDS011;50960;46.838;16.838;2023-03-23T14:48:53;9.07;;;8.18;;
64560;SDS011;50960;46.838;16.838;2023-03-23T14:51:20;8.57;;;7.78;;
64560;SDS011;50960;46.838;16.838;2023-03-23T14:53:47;8.68;;;7.05;;
64560;SDS011;50960;46.838;16.838;2023-03-23T14:56:17;8.32;;;7.50;;
64560;SDS011;50960;46.838;16.838;2023-03-23T14:58:50;8.57;;;7.40;;
64560;SDS011;50960;46.838;16.838;2023-03-23T15:04:06;7.25;;;6.55;;
64560;SDS011;50960;46.838;16.838;2023-03-23T15:06:45;8.25;;;7.40;;
64560;SDS011;50960;46.838;16.838;2023-03-23T15:09:22;8.95;;;7.75;;
64560;SDS011;50960;46.838;16.838;2023-03-23T15:11:56;8.45;;;7.47;;
64560;SDS011;50960;46.838;16.838;2023-03-23T15:14:47;8.98;;;8.05;;
64560;SDS011;50960;46.838;16.838;2023-03-23T15:17:23;8.18;;;7.28;;
64560;SDS011;50960;46.838;16.838;2023-03-23T15:19:54;7.97;;;7.28;;
64560;SDS011;50960;46.838;16.838;2023-03-23T15:22:25;7.30;;;6.70;;
64560;SDS011;50960;46.838;16.838;2023-03-23T15:25:12;9.15;;;7.15;;
64560;SDS011;50960;46.838;16.838;2023-03-23T15:30:46;7.55;;;6.57;;
64560;SDS011;50960;46.838;16.838;2023-03-23T15:33:18;6.90;;;5.93;;
64560;SDS011;50960;46.838;16.838;2023-03-23T15:35:52;8.13;;;6.78;;
64560;SDS011;50960;46.838;16.838;2023-03-23T15:38:26;7.20;;;6.50;;
64560;SDS011;50960;46.838;16.838;2023-03-23T15:40:57;7.03;;;6.28;;
64560;SDS011;50960;46.838;16.838;2023-03-23T15:43:33;7.30;;;6.35;;
64560;SDS011;50960;46.838;16.838;2023-03-23T15:46:05;7.70;;;6.70;;
64560;SDS011;50960;46.838;16.838;2023-03-23T15:48:48;6.78;;;6.10;;
64560;SDS011;50960;46.838;16.838;2023-03-23T15:51:14;6.60;;;5.95;;
64560;SDS011;50960;46.838;16.838;2023-03-23T15:53:42;6.63;;;6.00;;
64560;SDS011;50960;46.838;16.838;2023-03-23T15:56:10;6.60;;;6.00;;
64560;SDS011;50960;46.838;16.838;2023-03-23T15:58:39;5.97;;;5.38;;
64560;SDS011;50960;46.838;16.838;2023-03-23T16:01:16;7.03;;;6.40;;
64560;SDS011;50960;46.838;16.838;2023-03-23T16:03:49;6.32;;;5.72;;
64560;SDS011;50960;46.838;16.838;2023-03-23T16:06:20;6.80;;;5.80;;
64560;SDS011;50960;46.838;16.838;2023-03-23T16:08:48;6.80;;;6.07;;
64560;SDS011;50960;46.838;16.838;2023-03-23T16:11:15;6.60;;;5.85;;
64560;SDS011;50960;46.838;16.838;2023-03-23T16:13:43;6.38;;;5.82;;
64560;SDS011;50960;46.838;16.838;2023-03-23T16:16:15;6.13;;;5.40;;
64560;SDS011;50960;46.838;16.838;2023-03-23T16:18:47;6.78;;;5.68;;
64560;SDS011;50960;46.838;16.838;2023-03-23T16:21:15;6.15;;;5.65;;
64560;SDS011;50960;46.838;16.838;2023-03-23T16:23:42;6.82;;;6.13;;
64560;SDS011;50960;46.838;16.838;2023-03-23T16:26:11;6.78;;;6.07;;
64560;SDS011;50960;46.838;16.838;2023-03-23T16:28:39;6.25;;;5.65;;
64560;SDS011;50960;46.838;16.838;2023-03-23T16:31:06;8.57;;;5.93;;
64560;SDS011;50960;46.838;16.838;2023-03-23T16:33:32;6.47;;;5.85;;
64560;SDS011;50960;46.838;16.838;2023-03-23T16:35:59;6.20;;;5.50;;
64560;SDS011;50960;46.838;16.838;2023-03-23T16:38:27;6.47;;;5.97;;
64560;SDS011;50960;46.838;16.838;2023-03-23T16:40:53;10.48;;;9.40;;
64560;SDS011;50960;46.838;16.838;2023-03-23T16:43:20;8.50;;;7.50;;
64560;SDS011;50960;46.838;16.838;2023-03-23T16:45:46;6.43;;;5.82;;